sensor_id;sensor_type;location;lat;lon;timestamp;P1;durP1;ratioP1;P2;durP2;ratioP2
4585;SDS011;2305;50.118;8.952;2023-07-20T00:02:08;4.77;;;2.53;;
4585;SDS011;2305;50.118;8.952;2023-07-20T00:04:39;3.33;;;1.83;;
4585;SDS011;2305;50.118;8.952;2023-07-20T00:07:09;6.50;;;1.87;;
4585;SDS011;2305;50.118;8.952;2023-07-20T00:09:40;3.70;;;2.40;;
4585;SDS011;2305;50.118;8.952;2023-07-20T00:12:08;3.47;;;2.00;;
4585;SDS011;2305;50.118;8.952;2023-07-20T00:14:39;3.10;;;1.70;;
4585;SDS011;2305;50.118;8.952;2023-07-20T00:17:14;4.80;;;1.80;;
4585;SDS011;2305;50.118;8.952;2023-07-20T00:19:45;12.23;;;1.90;;
4585;SDS011;2305;50.118;8.952;2023-07-20T00:22:13;5.20;;;1.80;;
4585;SDS011;2305;50.118;8.952;2023-07-20T00:24:44;8.90;;;2.07;;
4585;SDS011;2305;50.118;8.952;2023-07-20T00:27:16;3.63;;;1.77;;
4585;SDS011;2305;50.118;8.952;2023-07-20T00:29:49;4.23;;;2.00;;
4585;SDS011;2305;50.118;8.952;2023-07-20T00:32:19;5.20;;;2.60;;
4585;SDS011;2305;50.118;8.952;2023-07-20T00:34:57;4.10;;;2.10;;
4585;SDS011;2305;50.118;8.952;2023-07-20T00:37:29;5.47;;;1.90;;
4585;SDS011;2305;50.118;8.952;2023-07-20T00:40:01;4.03;;;1.70;;
4585;SDS011;2305;50.118;8.952;2023-07-20T00:45:41;9.87;;;2.40;;
4585;SDS011;2305;50.118;8.952;2023-07-20T00:48:15;3.30;;;2.20;;
4585;SDS011;2305;50.118;8.952;2023-07-20T00:50:46;3.30;;;1.97;;
4585;SDS011;2305;50.118;8.952;2023-07-20T00:53:16;5.20;;;2.80;;
4585;SDS011;2305;50.118;8.952;2023-07-20T00:55:47;3.43;;;2.50;;
4585;SDS011;2305;50.118;8.952;2023-07-20T00:58:15;6.73;;;2.33;;
4585;SDS011;2305;50.118;8.952;2023-07-20T01:00:47;3.70;;;2.03;;
4585;SDS011;2305;50.118;8.952;2023-07-20T01:03:16;6.60;;;2.70;;
4585;SDS011;2305;50.118;8.952;2023-07-20T01:05:47;7.10;;;3.10;;
4585;SDS011;2305;50.118;8.952;2023-07-20T01:08:24;3.07;;;2.20;;
4585;SDS011;2305;50.118;8.952;2023-07-20T01:11:01;3.60;;;2.60;;
4585;SDS011;2305;50.118;8.952;2023-07-20T01:13:35;5.73;;;2.63;;
4585;SDS011;2305;50.118;8.952;2023-07-20T01:16:06;3.50;;;2.30;;
4585;SDS011;2305;50.118;8.952;2023-07-20T01:18:38;8.63;;;2.10;;
4585;SDS011;2305;50.118;8.952;2023-07-20T01:21:08;3.90;;;2.00;;
4585;SDS011;2305;50.118;8.952;2023-07-20T01:24:00;9.60;;;1.80;;
4585;SDS011;2305;50.118;8.952;2023-07-20T01:26:50;5.63;;;1.93;;
4585;SDS011;2305;50.118;8.952;2023-07-20T01:30:01;4.77;;;2.23;;
4585;SDS011;2305;50.118;8.952;2023-07-20T01:32:41;6.20;;;2.60;;
4585;SDS011;2305;50.118;8.952;2023-07-20T01:35:11;3.90;;;2.00;;
4585;SDS011;2305;50.118;8.952;2023-07-20T01:37:49;9.37;;;2.37;;
4585;SDS011;2305;50.118;8.952;2023-07-20T01:40:22;3.23;;;2.30;;
4585;SDS011;2305;50.118;8.952;2023-07-20T01:42:53;3.53;;;2.10;;
4585;SDS011;2305;50.118;8.952;2023-07-20T01:45:23;6.33;;;2.20;;
4585;SDS011;2305;50.118;8.952;2023-07-20T01:47:53;4.33;;;2.50;;
4585;SDS011;2305;50.118;8.952;2023-07-20T01:50:22;4.67;;;2.27;;
4585;SDS011;2305;50.118;8.952;2023-07-20T01:52:54;8.97;;;2.60;;
4585;SDS011;2305;50.118;8.952;2023-07-20T01:55:26;5.27;;;2.90;;
4585;SDS011;2305;50.118;8.952;2023-07-20T01:57:57;6.30;;;2.50;;
4585;SDS011;2305;50.118;8.952;2023-07-20T02:00:30;3.70;;;2.47;;
4585;SDS011;2305;50.118;8.952;2023-07-20T02:03:00;4.23;;;2.50;;
4585;SDS011;2305;50.118;8.952;2023-07-20T02:05:28;4.07;;;2.00;;
4585;SDS011;2305;50.118;8.952;2023-07-20T02:07:59;5.17;;;2.53;;
4585;SDS011;2305;50.118;8.952;2023-07-20T02:10:31;7.87;;;2.47;;
4585;SDS011;2305;50.118;8.952;2023-07-20T02:12:59;5.80;;;1.93;;
4585;SDS011;2305;50.118;8.952;2023-07-20T02:15:27;4.43;;;1.83;;
4585;SDS011;2305;50.118;8.952;2023-07-20T02:18:03;4.33;;;2.43;;
4585;SDS011;2305;50.118;8.952;2023-07-20T02:20:34;2.60;;;2.03;;
4585;SDS011;2305;50.118;8.952;2023-07-20T02:23:05;5.20;;;2.47;;
4585;SDS011;2305;50.118;8.952;2023-07-20T02:25:34;2.90;;;1.87;;
4585;SDS011;2305;50.118;8.952;2023-07-20T02:28:07;4.87;;;2.20;;
4585;SDS011;2305;50.118;8.952;2023-07-20T02:30:37;4.97;;;2.40;;
4585;SDS011;2305;50.118;8.952;2023-07-20T02:33:08;4.10;;;2.50;;
4585;SDS011;2305;50.118;8.952;2023-07-20T02:35:37;8.33;;;2.57;;
4585;SDS011;2305;50.118;8.952;2023-07-20T02:38:17;3.70;;;2.63;;
4585;SDS011;2305;50.118;8.952;2023-07-20T02:40:45;9.23;;;2.30;;
4585;SDS011;2305;50.118;8.952;2023-07-20T02:43:13;3.90;;;2.00;;
4585;SDS011;2305;50.118;8.952;2023-07-20T02:45:42;3.60;;;2.33;;
4585;SDS011;2305;50.118;8.952;2023-07-20T02:48:14;3.33;;;2.10;;
4585;SDS011;2305;50.118;8.952;2023-07-20T02:50:43;2.97;;;2.20;;
4585;SDS011;2305;50.118;8.952;2023-07-20T02:53:15;4.33;;;2.57;;
4585;SDS011;2305;50.118;8.952;2023-07-20T02:55:45;3.73;;;2.33;;
4585;SDS011;2305;50.118;8.952;2023-07-20T02:58:17;7.40;;;2.73;;
4585;SDS011;2305;50.118;8.952;2023-07-20T03:00:45;9.43;;;2.17;;
4585;SDS011;2305;50.118;8.952;2023-07-20T03:03:20;3.40;;;2.10;;
4585;SDS011;2305;50.118;8.952;2023-07-20T03:05:48;7.60;;;2.53;;
4585;SDS011;2305;50.118;8.952;2023-07-20T03:08:22;4.13;;;2.50;;
4585;SDS011;2305;50.118;8.952;2023-07-20T03:10:50;4.70;;;2.20;;
4585;SDS011;2305;50.118;8.952;2023-07-20T03:13:21;9.03;;;2.60;;
4585;SDS011;2305;50.118;8.952;2023-07-20T03:15:54;4.20;;;3.33;;
4585;SDS011;2305;50.118;8.952;2023-07-20T03:18:24;4.40;;;2.30;;
4585;SDS011;2305;50.118;8.952;2023-07-20T03:20:54;4.20;;;2.57;;
4585;SDS011;2305;50.118;8.952;2023-07-20T03:23:24;6.27;;;2.20;;
4585;SDS011;2305;50.118;8.952;2023-07-20T03:25:53;7.23;;;2.57;;
4585;SDS011;2305;50.118;8.952;2023-07-20T03:28:27;4.27;;;2.07;;
4585;SDS011;2305;50.118;8.952;2023-07-20T03:30:55;10.40;;;2.83;;
4585;SDS011;2305;50.118;8.952;2023-07-20T03:33:27;5.10;;;2.33;;
4585;SDS011;2305;50.118;8.952;2023-07-20T03:35:58;4.93;;;2.43;;
4585;SDS011;2305;50.118;8.952;2023-07-20T03:38:29;6.03;;;3.00;;
4585;SDS011;2305;50.118;8.952;2023-07-20T03:41:00;7.80;;;2.87;;
4585;SDS011;2305;50.118;8.952;2023-07-20T03:43:30;5.23;;;2.30;;
4585;SDS011;2305;50.118;8.952;2023-07-20T03:46:00;16.20;;;2.97;;
4585;SDS011;2305;50.118;8.952;2023-07-20T03:48:35;6.77;;;2.73;;
4585;SDS011;2305;50.118;8.952;2023-07-20T03:51:06;3.87;;;2.40;;
4585;SDS011;2305;50.118;8.952;2023-07-20T03:53:34;6.40;;;2.60;;
4585;SDS011;2305;50.118;8.952;2023-07-20T03:56:02;5.03;;;2.40;;
4585;SDS011;2305;50.118;8.952;2023-07-20T03:58:34;4.80;;;2.50;;
4585;SDS011;2305;50.118;8.952;2023-07-20T04:01:04;8.73;;;2.50;;
4585;SDS011;2305;50.118;8.952;2023-07-20T04:03:37;6.13;;;3.40;;
4585;SDS011;2305;50.118;8.952;2023-07-20T04:06:06;10.40;;;3.07;;
4585;SDS011;2305;50.118;8.952;2023-07-20T04:08:35;8.90;;;2.60;;
4585;SDS011;2305;50.118;8.952;2023-07-20T04:11:03;5.13;;;2.73;;
4585;SDS011;2305;50.118;8.952;2023-07-20T04:13:34;6.60;;;2.87;;
4585;SDS011;2305;50.118;8.952;2023-07-20T04:16:04;8.63;;;2.77;;
4585;SDS011;2305;50.118;8.952;2023-07-20T04:18:33;11.47;;;2.77;;
4585;SDS011;2305;50.118;8.952;2023-07-20T04:21:03;5.50;;;3.57;;
4585;SDS011;2305;50.118;8.952;2023-07-20T04:23:33;8.47;;;2.90;;
4585;SDS011;2305;50.118;8.952;2023-07-20T04:26:07;7.03;;;2.70;;
4585;SDS011;2305;50.118;8.952;2023-07-20T04:28:37;19.03;;;3.37;;
4585;SDS011;2305;50.118;8.952;2023-07-20T04:31:14;15.20;;;3.43;;
4585;SDS011;2305;50.118;8.952;2023-07-20T04:33:44;8.23;;;3.50;;
4585;SDS011;2305;50.118;8.952;2023-07-20T04:36:15;7.60;;;4.37;;
4585;SDS011;2305;50.118;8.952;2023-07-20T04:38:46;11.00;;;2.50;;
4585;SDS011;2305;50.118;8.952;2023-07-20T04:41:19;4.97;;;3.17;;
4585;SDS011;2305;50.118;8.952;2023-07-20T04:43:49;4.37;;;2.70;;
4585;SDS011;2305;50.118;8.952;2023-07-20T04:46:27;5.47;;;2.70;;
4585;SDS011;2305;50.118;8.952;2023-07-20T04:48:58;7.73;;;2.90;;
4585;SDS011;2305;50.118;8.952;2023-07-20T04:51:31;3.73;;;2.43;;
4585;SDS011;2305;50.118;8.952;2023-07-20T04:54:02;10.87;;;3.30;;
4585;SDS011;2305;50.118;8.952;2023-07-20T04:56:37;5.63;;;2.97;;
4585;SDS011;2305;50.118;8.952;2023-07-20T04:59:12;4.93;;;2.60;;
4585;SDS011;2305;50.118;8.952;2023-07-20T05:01:44;13.50;;;3.00;;
4585;SDS011;2305;50.118;8.952;2023-07-20T05:04:13;9.20;;;2.80;;
4585;SDS011;2305;50.118;8.952;2023-07-20T05:06:46;4.00;;;2.53;;
4585;SDS011;2305;50.118;8.952;2023-07-20T05:09:18;5.03;;;2.67;;
4585;SDS011;2305;50.118;8.952;2023-07-20T05:11:48;7.57;;;3.47;;
4585;SDS011;2305;50.118;8.952;2023-07-20T05:14:16;4.13;;;2.63;;
4585;SDS011;2305;50.118;8.952;2023-07-20T05:16:45;7.90;;;2.50;;
4585;SDS011;2305;50.118;8.952;2023-07-20T05:19:13;4.30;;;2.70;;
4585;SDS011;2305;50.118;8.952;2023-07-20T05:21:43;3.93;;;2.57;;
4585;SDS011;2305;50.118;8.952;2023-07-20T05:24:19;5.77;;;2.77;;
4585;SDS011;2305;50.118;8.952;2023-07-20T05:26:47;6.10;;;2.20;;
4585;SDS011;2305;50.118;8.952;2023-07-20T05:29:17;9.60;;;3.10;;
4585;SDS011;2305;50.118;8.952;2023-07-20T05:32:10;5.33;;;2.53;;
4585;SDS011;2305;50.118;8.952;2023-07-20T05:34:39;9.47;;;3.00;;
4585;SDS011;2305;50.118;8.952;2023-07-20T05:37:08;4.43;;;2.07;;
4585;SDS011;2305;50.118;8.952;2023-07-20T05:39:43;4.53;;;2.87;;
4585;SDS011;2305;50.118;8.952;2023-07-20T05:42:12;6.20;;;3.83;;
4585;SDS011;2305;50.118;8.952;2023-07-20T05:44:41;5.53;;;2.77;;
4585;SDS011;2305;50.118;8.952;2023-07-20T05:47:10;7.63;;;3.50;;
4585;SDS011;2305;50.118;8.952;2023-07-20T05:49:39;12.10;;;3.00;;
4585;SDS011;2305;50.118;8.952;2023-07-20T05:52:09;5.67;;;2.80;;
4585;SDS011;2305;50.118;8.952;2023-07-20T05:54:39;3.97;;;2.30;;
4585;SDS011;2305;50.118;8.952;2023-07-20T05:57:09;8.43;;;2.90;;
4585;SDS011;2305;50.118;8.952;2023-07-20T05:59:38;7.83;;;3.10;;
4585;SDS011;2305;50.118;8.952;2023-07-20T06:02:09;16.87;;;3.00;;
4585;SDS011;2305;50.118;8.952;2023-07-20T06:04:38;10.60;;;2.80;;
4585;SDS011;2305;50.118;8.952;2023-07-20T06:07:06;15.33;;;3.83;;
4585;SDS011;2305;50.118;8.952;2023-07-20T06:09:37;6.40;;;2.80;;
4585;SDS011;2305;50.118;8.952;2023-07-20T06:12:11;9.63;;;3.10;;
4585;SDS011;2305;50.118;8.952;2023-07-20T06:14:41;19.30;;;3.43;;
4585;SDS011;2305;50.118;8.952;2023-07-20T06:17:12;15.83;;;3.20;;
4585;SDS011;2305;50.118;8.952;2023-07-20T06:19:42;11.67;;;3.57;;
4585;SDS011;2305;50.118;8.952;2023-07-20T06:22:13;7.10;;;2.73;;
4585;SDS011;2305;50.118;8.952;2023-07-20T06:24:45;13.83;;;2.70;;
4585;SDS011;2305;50.118;8.952;2023-07-20T06:27:15;6.43;;;3.27;;
4585;SDS011;2305;50.118;8.952;2023-07-20T06:29:47;5.20;;;2.30;;
4585;SDS011;2305;50.118;8.952;2023-07-20T06:32:18;5.57;;;2.50;;
4585;SDS011;2305;50.118;8.952;2023-07-20T06:34:50;5.40;;;2.50;;
4585;SDS011;2305;50.118;8.952;2023-07-20T06:37:18;5.17;;;2.47;;
4585;SDS011;2305;50.118;8.952;2023-07-20T06:39:55;3.80;;;2.43;;
4585;SDS011;2305;50.118;8.952;2023-07-20T06:42:31;9.33;;;3.20;;
4585;SDS011;2305;50.118;8.952;2023-07-20T06:45:04;5.37;;;3.13;;
4585;SDS011;2305;50.118;8.952;2023-07-20T06:47:34;9.50;;;2.87;;
4585;SDS011;2305;50.118;8.952;2023-07-20T06:50:04;2.30;;;1.90;;
4585;SDS011;2305;50.118;8.952;2023-07-20T06:52:35;7.07;;;2.60;;
4585;SDS011;2305;50.118;8.952;2023-07-20T06:55:05;8.23;;;2.60;;
4585;SDS011;2305;50.118;8.952;2023-07-20T06:57:39;5.87;;;2.53;;
4585;SDS011;2305;50.118;8.952;2023-07-20T07:00:14;5.83;;;2.53;;
4585;SDS011;2305;50.118;8.952;2023-07-20T07:02:46;7.00;;;2.20;;
4585;SDS011;2305;50.118;8.952;2023-07-20T07:05:17;3.90;;;2.07;;
4585;SDS011;2305;50.118;8.952;2023-07-20T07:07:47;5.67;;;2.27;;
4585;SDS011;2305;50.118;8.952;2023-07-20T07:10:16;11.40;;;2.40;;
4585;SDS011;2305;50.118;8.952;2023-07-20T07:12:48;4.40;;;2.30;;
4585;SDS011;2305;50.118;8.952;2023-07-20T07:15:17;7.70;;;2.80;;
4585;SDS011;2305;50.118;8.952;2023-07-20T07:17:50;11.93;;;2.90;;
4585;SDS011;2305;50.118;8.952;2023-07-20T07:20:19;5.33;;;2.57;;
4585;SDS011;2305;50.118;8.952;2023-07-20T07:22:51;8.43;;;2.70;;
4585;SDS011;2305;50.118;8.952;2023-07-20T07:25:20;12.00;;;2.47;;
4585;SDS011;2305;50.118;8.952;2023-07-20T07:27:52;5.63;;;2.03;;
4585;SDS011;2305;50.118;8.952;2023-07-20T07:30:22;15.97;;;3.07;;
4585;SDS011;2305;50.118;8.952;2023-07-20T07:32:53;12.33;;;3.07;;
4585;SDS011;2305;50.118;8.952;2023-07-20T07:35:21;21.40;;;3.80;;
4585;SDS011;2305;50.118;8.952;2023-07-20T07:37:50;16.80;;;3.50;;
4585;SDS011;2305;50.118;8.952;2023-07-20T07:40:42;13.27;;;2.40;;
4585;SDS011;2305;50.118;8.952;2023-07-20T07:43:12;6.77;;;2.90;;
4585;SDS011;2305;50.118;8.952;2023-07-20T07:45:41;5.47;;;2.47;;
4585;SDS011;2305;50.118;8.952;2023-07-20T07:48:11;10.77;;;2.43;;
4585;SDS011;2305;50.118;8.952;2023-07-20T07:50:41;16.60;;;2.20;;
4585;SDS011;2305;50.118;8.952;2023-07-20T07:53:09;5.27;;;2.37;;
4585;SDS011;2305;50.118;8.952;2023-07-20T07:55:37;9.60;;;2.20;;
4585;SDS011;2305;50.118;8.952;2023-07-20T07:58:08;3.20;;;2.03;;
4585;SDS011;2305;50.118;8.952;2023-07-20T08:00:38;4.23;;;2.50;;
4585;SDS011;2305;50.118;8.952;2023-07-20T08:03:10;7.73;;;2.60;;
4585;SDS011;2305;50.118;8.952;2023-07-20T08:05:40;6.70;;;2.03;;
4585;SDS011;2305;50.118;8.952;2023-07-20T08:08:11;11.80;;;3.13;;
4585;SDS011;2305;50.118;8.952;2023-07-20T08:10:40;5.27;;;2.77;;
4585;SDS011;2305;50.118;8.952;2023-07-20T08:13:09;8.70;;;2.10;;
4585;SDS011;2305;50.118;8.952;2023-07-20T08:15:39;4.33;;;2.27;;
4585;SDS011;2305;50.118;8.952;2023-07-20T08:18:08;5.47;;;2.40;;
4585;SDS011;2305;50.118;8.952;2023-07-20T08:20:37;10.33;;;2.50;;
4585;SDS011;2305;50.118;8.952;2023-07-20T08:23:06;4.80;;;2.23;;
4585;SDS011;2305;50.118;8.952;2023-07-20T08:25:36;4.20;;;2.00;;
4585;SDS011;2305;50.118;8.952;2023-07-20T08:28:06;3.33;;;1.87;;
4585;SDS011;2305;50.118;8.952;2023-07-20T08:30:40;6.93;;;2.30;;
4585;SDS011;2305;50.118;8.952;2023-07-20T08:33:14;11.90;;;2.40;;
4585;SDS011;2305;50.118;8.952;2023-07-20T08:35:44;7.60;;;2.80;;
4585;SDS011;2305;50.118;8.952;2023-07-20T08:38:13;2.37;;;1.60;;
4585;SDS011;2305;50.118;8.952;2023-07-20T08:40:42;8.80;;;2.10;;
4585;SDS011;2305;50.118;8.952;2023-07-20T08:43:14;4.77;;;2.00;;
4585;SDS011;2305;50.118;8.952;2023-07-20T08:45:47;2.17;;;1.60;;
4585;SDS011;2305;50.118;8.952;2023-07-20T08:48:19;3.80;;;1.93;;
4585;SDS011;2305;50.118;8.952;2023-07-20T08:50:50;3.83;;;1.90;;
4585;SDS011;2305;50.118;8.952;2023-07-20T08:53:24;10.37;;;2.70;;
4585;SDS011;2305;50.118;8.952;2023-07-20T08:55:53;3.03;;;1.73;;
4585;SDS011;2305;50.118;8.952;2023-07-20T08:58:22;2.90;;;1.70;;
4585;SDS011;2305;50.118;8.952;2023-07-20T09:00:54;4.50;;;2.10;;
4585;SDS011;2305;50.118;8.952;2023-07-20T09:03:26;5.40;;;1.50;;
4585;SDS011;2305;50.118;8.952;2023-07-20T09:05:55;2.67;;;1.70;;
4585;SDS011;2305;50.118;8.952;2023-07-20T09:08:26;6.87;;;2.20;;
4585;SDS011;2305;50.118;8.952;2023-07-20T09:10:54;3.20;;;2.03;;
4585;SDS011;2305;50.118;8.952;2023-07-20T09:13:24;4.37;;;2.00;;
4585;SDS011;2305;50.118;8.952;2023-07-20T09:15:57;3.30;;;1.90;;
4585;SDS011;2305;50.118;8.952;2023-07-20T09:18:27;9.50;;;2.40;;
4585;SDS011;2305;50.118;8.952;2023-07-20T09:21:01;6.93;;;2.33;;
4585;SDS011;2305;50.118;8.952;2023-07-20T09:23:31;5.30;;;2.30;;
4585;SDS011;2305;50.118;8.952;2023-07-20T09:26:01;2.67;;;1.70;;
4585;SDS011;2305;50.118;8.952;2023-07-20T09:28:41;5.90;;;2.07;;
4585;SDS011;2305;50.118;8.952;2023-07-20T09:31:18;5.87;;;2.77;;
4585;SDS011;2305;50.118;8.952;2023-07-20T09:33:49;3.83;;;1.87;;
4585;SDS011;2305;50.118;8.952;2023-07-20T09:36:27;5.47;;;2.13;;
4585;SDS011;2305;50.118;8.952;2023-07-20T09:38:58;3.23;;;2.00;;
4585;SDS011;2305;50.118;8.952;2023-07-20T09:41:39;2.30;;;1.80;;
4585;SDS011;2305;50.118;8.952;2023-07-20T09:44:13;3.13;;;2.20;;
4585;SDS011;2305;50.118;8.952;2023-07-20T09:46:48;5.10;;;1.70;;
4585;SDS011;2305;50.118;8.952;2023-07-20T09:49:22;7.30;;;1.90;;
4585;SDS011;2305;50.118;8.952;2023-07-20T09:51:57;4.13;;;2.37;;
4585;SDS011;2305;50.118;8.952;2023-07-20T09:54:27;5.70;;;2.10;;
4585;SDS011;2305;50.118;8.952;2023-07-20T09:56:59;3.13;;;2.00;;
4585;SDS011;2305;50.118;8.952;2023-07-20T09:59:29;9.27;;;2.30;;
4585;SDS011;2305;50.118;8.952;2023-07-20T10:02:01;14.77;;;1.80;;
4585;SDS011;2305;50.118;8.952;2023-07-20T10:04:45;3.50;;;1.47;;
4585;SDS011;2305;50.118;8.952;2023-07-20T10:07:18;6.40;;;1.67;;
4585;SDS011;2305;50.118;8.952;2023-07-20T10:09:54;6.40;;;2.10;;
4585;SDS011;2305;50.118;8.952;2023-07-20T10:12:24;2.90;;;1.73;;
4585;SDS011;2305;50.118;8.952;2023-07-20T10:14:57;2.30;;;2.00;;
4585;SDS011;2305;50.118;8.952;2023-07-20T10:17:34;5.07;;;2.20;;
4585;SDS011;2305;50.118;8.952;2023-07-20T10:20:05;3.20;;;2.00;;
4585;SDS011;2305;50.118;8.952;2023-07-20T10:22:37;5.50;;;2.30;;
4585;SDS011;2305;50.118;8.952;2023-07-20T10:25:08;4.63;;;2.30;;
4585;SDS011;2305;50.118;8.952;2023-07-20T10:27:39;3.33;;;2.20;;
4585;SDS011;2305;50.118;8.952;2023-07-20T10:30:10;3.20;;;1.83;;
4585;SDS011;2305;50.118;8.952;2023-07-20T10:32:46;3.00;;;1.67;;
4585;SDS011;2305;50.118;8.952;2023-07-20T10:35:21;5.23;;;1.73;;
4585;SDS011;2305;50.118;8.952;2023-07-20T10:37:52;2.00;;;1.60;;
4585;SDS011;2305;50.118;8.952;2023-07-20T10:40:31;4.83;;;2.43;;
4585;SDS011;2305;50.118;8.952;2023-07-20T10:43:04;2.40;;;1.50;;
4585;SDS011;2305;50.118;8.952;2023-07-20T10:45:42;4.00;;;1.80;;
4585;SDS011;2305;50.118;8.952;2023-07-20T10:48:18;8.03;;;2.17;;
4585;SDS011;2305;50.118;8.952;2023-07-20T10:53:39;5.47;;;2.20;;
4585;SDS011;2305;50.118;8.952;2023-07-20T10:56:12;5.67;;;2.23;;
4585;SDS011;2305;50.118;8.952;2023-07-20T10:58:42;9.27;;;2.67;;
4585;SDS011;2305;50.118;8.952;2023-07-20T11:01:17;17.30;;;2.10;;
4585;SDS011;2305;50.118;8.952;2023-07-20T11:03:56;5.43;;;2.50;;
4585;SDS011;2305;50.118;8.952;2023-07-20T11:06:32;6.63;;;1.80;;
4585;SDS011;2305;50.118;8.952;2023-07-20T11:09:05;6.03;;;2.20;;
4585;SDS011;2305;50.118;8.952;2023-07-20T11:11:38;7.50;;;2.10;;
4585;SDS011;2305;50.118;8.952;2023-07-20T11:14:10;2.90;;;1.73;;
4585;SDS011;2305;50.118;8.952;2023-07-20T11:16:49;3.97;;;2.30;;
4585;SDS011;2305;50.118;8.952;2023-07-20T11:19:22;2.77;;;1.83;;
4585;SDS011;2305;50.118;8.952;2023-07-20T11:21:54;5.80;;;1.77;;
4585;SDS011;2305;50.118;8.952;2023-07-20T11:24:29;3.20;;;1.60;;
4585;SDS011;2305;50.118;8.952;2023-07-20T11:26:59;3.30;;;2.10;;
4585;SDS011;2305;50.118;8.952;2023-07-20T11:29:29;7.93;;;2.67;;
4585;SDS011;2305;50.118;8.952;2023-07-20T11:32:00;9.17;;;2.07;;
4585;SDS011;2305;50.118;8.952;2023-07-20T11:34:35;4.80;;;2.03;;
4585;SDS011;2305;50.118;8.952;2023-07-20T11:37:05;5.60;;;1.97;;
4585;SDS011;2305;50.118;8.952;2023-07-20T11:39:36;6.63;;;2.17;;
4585;SDS011;2305;50.118;8.952;2023-07-20T11:42:07;13.40;;;2.90;;
4585;SDS011;2305;50.118;8.952;2023-07-20T11:44:36;7.10;;;1.90;;
4585;SDS011;2305;50.118;8.952;2023-07-20T11:47:07;3.00;;;1.80;;
4585;SDS011;2305;50.118;8.952;2023-07-20T11:49:38;4.00;;;1.60;;
4585;SDS011;2305;50.118;8.952;2023-07-20T11:52:10;4.20;;;1.70;;
4585;SDS011;2305;50.118;8.952;2023-07-20T11:54:40;1.90;;;1.70;;
4585;SDS011;2305;50.118;8.952;2023-07-20T11:57:15;5.20;;;1.90;;
4585;SDS011;2305;50.118;8.952;2023-07-20T11:59:54;3.30;;;1.50;;
4585;SDS011;2305;50.118;8.952;2023-07-20T12:02:26;4.50;;;1.90;;
4585;SDS011;2305;50.118;8.952;2023-07-20T12:04:59;12.93;;;2.00;;
4585;SDS011;2305;50.118;8.952;2023-07-20T12:07:28;4.77;;;1.90;;
4585;SDS011;2305;50.118;8.952;2023-07-20T12:10:03;12.40;;;2.33;;
4585;SDS011;2305;50.118;8.952;2023-07-20T12:12:33;8.17;;;2.20;;
4585;SDS011;2305;50.118;8.952;2023-07-20T12:15:12;8.93;;;2.23;;
4585;SDS011;2305;50.118;8.952;2023-07-20T12:17:46;5.27;;;2.00;;
4585;SDS011;2305;50.118;8.952;2023-07-20T12:20:28;5.87;;;1.93;;
4585;SDS011;2305;50.118;8.952;2023-07-20T12:23:03;8.80;;;2.13;;
4585;SDS011;2305;50.118;8.952;2023-07-20T12:25:33;5.47;;;1.57;;
4585;SDS011;2305;50.118;8.952;2023-07-20T12:28:06;2.40;;;1.60;;
4585;SDS011;2305;50.118;8.952;2023-07-20T12:30:36;3.93;;;1.83;;
4585;SDS011;2305;50.118;8.952;2023-07-20T12:33:05;3.07;;;2.00;;
4585;SDS011;2305;50.118;8.952;2023-07-20T12:35:36;6.27;;;1.90;;
4585;SDS011;2305;50.118;8.952;2023-07-20T12:38:04;3.80;;;2.03;;
4585;SDS011;2305;50.118;8.952;2023-07-20T12:40:34;9.03;;;1.80;;
4585;SDS011;2305;50.118;8.952;2023-07-20T12:43:03;13.30;;;2.13;;
4585;SDS011;2305;50.118;8.952;2023-07-20T12:45:33;6.93;;;2.90;;
4585;SDS011;2305;50.118;8.952;2023-07-20T12:48:03;6.43;;;2.10;;
4585;SDS011;2305;50.118;8.952;2023-07-20T12:50:32;2.73;;;1.60;;
4585;SDS011;2305;50.118;8.952;2023-07-20T12:53:02;16.70;;;2.00;;
4585;SDS011;2305;50.118;8.952;2023-07-20T12:55:31;6.50;;;2.13;;
4585;SDS011;2305;50.118;8.952;2023-07-20T12:58:00;9.53;;;2.30;;
4585;SDS011;2305;50.118;8.952;2023-07-20T13:00:28;4.63;;;2.47;;
4585;SDS011;2305;50.118;8.952;2023-07-20T13:02:56;5.17;;;2.20;;
4585;SDS011;2305;50.118;8.952;2023-07-20T13:05:30;5.30;;;2.00;;
4585;SDS011;2305;50.118;8.952;2023-07-20T13:08:07;4.50;;;2.73;;
4585;SDS011;2305;50.118;8.952;2023-07-20T13:10:39;2.90;;;1.60;;
4585;SDS011;2305;50.118;8.952;2023-07-20T13:13:08;5.20;;;2.10;;
4585;SDS011;2305;50.118;8.952;2023-07-20T13:15:42;2.77;;;1.60;;
4585;SDS011;2305;50.118;8.952;2023-07-20T13:18:13;3.93;;;1.57;;
4585;SDS011;2305;50.118;8.952;2023-07-20T13:20:41;3.93;;;1.63;;
4585;SDS011;2305;50.118;8.952;2023-07-20T13:23:11;4.23;;;2.03;;
4585;SDS011;2305;50.118;8.952;2023-07-20T13:25:41;9.30;;;1.83;;
4585;SDS011;2305;50.118;8.952;2023-07-20T13:28:10;4.07;;;1.80;;
4585;SDS011;2305;50.118;8.952;2023-07-20T13:30:39;3.27;;;1.67;;
4585;SDS011;2305;50.118;8.952;2023-07-20T13:33:10;5.13;;;2.10;;
4585;SDS011;2305;50.118;8.952;2023-07-20T13:35:45;2.90;;;1.50;;
4585;SDS011;2305;50.118;8.952;2023-07-20T13:38:20;1.90;;;1.30;;
4585;SDS011;2305;50.118;8.952;2023-07-20T13:40:51;4.83;;;1.87;;
4585;SDS011;2305;50.118;8.952;2023-07-20T13:43:21;3.53;;;1.70;;
4585;SDS011;2305;50.118;8.952;2023-07-20T13:45:50;3.13;;;1.70;;
4585;SDS011;2305;50.118;8.952;2023-07-20T13:48:19;2.47;;;1.50;;
4585;SDS011;2305;50.118;8.952;2023-07-20T13:50:56;2.90;;;1.50;;
4585;SDS011;2305;50.118;8.952;2023-07-20T13:53:28;3.57;;;2.00;;
4585;SDS011;2305;50.118;8.952;2023-07-20T13:56:01;2.40;;;1.57;;
4585;SDS011;2305;50.118;8.952;2023-07-20T13:58:36;4.17;;;1.80;;
4585;SDS011;2305;50.118;8.952;2023-07-20T14:01:06;10.33;;;1.60;;
4585;SDS011;2305;50.118;8.952;2023-07-20T14:03:35;3.07;;;1.80;;
4585;SDS011;2305;50.118;8.952;2023-07-20T14:06:04;6.70;;;1.70;;
4585;SDS011;2305;50.118;8.952;2023-07-20T14:08:37;1.70;;;1.50;;
4585;SDS011;2305;50.118;8.952;2023-07-20T14:11:05;2.63;;;1.90;;
4585;SDS011;2305;50.118;8.952;2023-07-20T14:13:37;3.10;;;1.60;;
4585;SDS011;2305;50.118;8.952;2023-07-20T14:16:13;2.07;;;1.37;;
4585;SDS011;2305;50.118;8.952;2023-07-20T14:18:43;3.30;;;1.50;;
4585;SDS011;2305;50.118;8.952;2023-07-20T14:21:18;2.07;;;1.40;;
4585;SDS011;2305;50.118;8.952;2023-07-20T14:23:50;5.23;;;1.40;;
4585;SDS011;2305;50.118;8.952;2023-07-20T14:26:20;5.90;;;1.53;;
4585;SDS011;2305;50.118;8.952;2023-07-20T14:28:50;3.00;;;1.40;;
4585;SDS011;2305;50.118;8.952;2023-07-20T14:31:18;4.27;;;1.80;;
4585;SDS011;2305;50.118;8.952;2023-07-20T14:33:50;2.47;;;1.70;;
4585;SDS011;2305;50.118;8.952;2023-07-20T14:36:19;1.63;;;1.40;;
4585;SDS011;2305;50.118;8.952;2023-07-20T14:38:49;3.23;;;1.50;;
4585;SDS011;2305;50.118;8.952;2023-07-20T14:41:17;3.47;;;1.43;;
4585;SDS011;2305;50.118;8.952;2023-07-20T14:43:47;1.67;;;1.33;;
4585;SDS011;2305;50.118;8.952;2023-07-20T14:46:15;2.60;;;1.47;;
4585;SDS011;2305;50.118;8.952;2023-07-20T14:48:47;2.90;;;1.40;;
4585;SDS011;2305;50.118;8.952;2023-07-20T14:51:16;3.40;;;1.80;;
4585;SDS011;2305;50.118;8.952;2023-07-20T14:53:46;2.10;;;1.20;;
4585;SDS011;2305;50.118;8.952;2023-07-20T14:56:16;2.70;;;1.30;;
4585;SDS011;2305;50.118;8.952;2023-07-20T14:58:45;8.00;;;1.40;;
4585;SDS011;2305;50.118;8.952;2023-07-20T15:01:13;2.63;;;1.23;;
4585;SDS011;2305;50.118;8.952;2023-07-20T15:03:42;1.80;;;1.27;;
4585;SDS011;2305;50.118;8.952;2023-07-20T15:06:10;1.70;;;1.33;;
4585;SDS011;2305;50.118;8.952;2023-07-20T15:08:39;4.30;;;1.30;;
4585;SDS011;2305;50.118;8.952;2023-07-20T15:11:08;1.93;;;1.50;;
4585;SDS011;2305;50.118;8.952;2023-07-20T15:13:41;6.77;;;1.23;;
4585;SDS011;2305;50.118;8.952;2023-07-20T15:16:11;3.90;;;1.53;;
4585;SDS011;2305;50.118;8.952;2023-07-20T15:18:40;2.27;;;1.40;;
4585;SDS011;2305;50.118;8.952;2023-07-20T15:21:16;3.77;;;1.50;;
4585;SDS011;2305;50.118;8.952;2023-07-20T15:23:44;8.63;;;1.57;;
4585;SDS011;2305;50.118;8.952;2023-07-20T15:26:12;1.60;;;1.10;;
4585;SDS011;2305;50.118;8.952;2023-07-20T15:28:45;2.97;;;1.40;;
4585;SDS011;2305;50.118;8.952;2023-07-20T15:31:15;2.37;;;1.53;;
4585;SDS011;2305;50.118;8.952;2023-07-20T15:33:44;3.33;;;1.80;;
4585;SDS011;2305;50.118;8.952;2023-07-20T15:36:14;4.30;;;1.30;;
4585;SDS011;2305;50.118;8.952;2023-07-20T15:38:42;3.73;;;1.40;;
4585;SDS011;2305;50.118;8.952;2023-07-20T15:41:10;3.43;;;1.37;;
4585;SDS011;2305;50.118;8.952;2023-07-20T15:43:42;2.03;;;1.40;;
4585;SDS011;2305;50.118;8.952;2023-07-20T15:46:39;2.90;;;1.03;;
4585;SDS011;2305;50.118;8.952;2023-07-20T15:49:15;3.20;;;1.33;;